Архив погоды в Темникове

Метеограмма Темников
Вторник, 25 Июня
Время местн. Темп Ветер Видим Явления Облачность нижн/средн/верх Атм. давл. Влжн Точка росы ВНГО R Сост. почвы Tg s
Напр Скр Прв ур.ст ур.м изм
06:00 +13.1° З,С-З 2 3 20 км - переменная облачность 756 768 +0.6 66% +6.8° более 2.5 км - Влажная (без луж) - -
03:00 +11.3° З,С-З 1 3 20 км - переменная облачность 755 768 +0.2 72% +6.4° более 2.5 км - - - -
00:00 +14.8° З,С-З 2 3 10 км - переменная облачность 754 767 +1.1 63% +7.8° 1 км - - - -
Понедельник, 24 Июня
Время местн. Темп Ветер Видим Явления Облачность нижн/средн/верх Атм. давл. Влжн Точка росы ВНГО R Сост. почвы Tg s
Напр Скр Прв ур.ст ур.м изм
21:00 +16.9° З,С-З 1 2 20 км - переменная облачность 753 766 +0.5 63% +9.9° 1 км - - - -
18:00 +24° С-З 2 5 20 км - переменная облачность 753 765 -0.3 39% +9.3° 1.5 км - - - -
15:00 +22.9° С 3 5 20 км - облачно с прояснениями 753 765 -0.3 45% +10.4° 1 км - - - -
12:00 +21.4° С,С-В 3 5 20 км - облачно с прояснениями 753 766 0 59% +13° 1 км - - - -
09:00 +14° С,С-З 2 4 4 км гроза в последний час, слабый дождь {ливневые осадки} облачно 753 766 +0.2 95% +13.2° 1 км - - - -
06:00 +13.2° С,С-В 3 7 4 км слабая или умеренная гроза с осадками облачно 753 766 +1.3 94% +12.3° 600 м - Влажная (без луж) - -
03:00 +19.3° В,С-В 1 2 20 км - облачно 752 764 +0.2 61% +11.5° 1 км - - - -
00:00 +22.2° С 2 4 10 км - переменная облачность 752 764 +0.3 60% +14° - - - - -
Воскресенье, 23 Июня
Время местн. Темп Ветер Видим Явления Облачность нижн/средн/верх Атм. давл. Влжн Точка росы ВНГО R Сост. почвы Tg s
Напр Скр Прв ур.ст ур.м изм
21:00 +25.6° С,С-З 2 3 20 км - переменная облачность 751 763 +0.6 50% +14.4° - - - - -
18:00 +30.5° С,С-З 4 7 20 км - переменная облачность 751 763 -0.1 39% +14.9° 1.5 км - - - -
15:00 +32.3° С-З 4 8 20 км - переменная облачность 751 763 -0.2 31% +13° 1.5 км - - - -
12:00 +32.5° З,Ю-З 4 8 20 км - переменная облачность 751 763 -0.4 26% +10.3° 1.5 км - - - -
09:00 +28.9° З,Ю-З 1 3 20 км - ясно 751 763 +0.1 40% +13.9° более 2.5 км - - - -
06:00 +22.4° З,Ю-З 2 2 20 км - переменная облачность 751 763 +0.3 54% +12.6° 1.5 км - Сухая (без трещин) - -
03:00 +21.2° Ю-З 2 3 20 км - переменная облачность 751 763 +0.2 54% +11.5° 1.5 км - - - -
00:00 +22.2° З 2 3 10 км - незначительная облачность 751 763 +0.3 52% +11.9° более 2.5 км - - - -
Суббота, 22 Июня
Время местн. Темп Ветер Видим Явления Облачность нижн/средн/верх Атм. давл. Влжн Точка росы ВНГО R Сост. почвы Tg s
Напр Скр Прв ур.ст ур.м изм
21:00 +26° З,Ю-З 1 2 20 км - переменная облачность 751 762 +0.1 42% +12.1° 1 км - - - -
18:00 +31.6° З,Ю-З 3 7 20 км - переменная облачность 750 762 -0.8 26% +9.9° 1.5 км - - - -
15:00 +32.2° З,Ю-З 3 5 20 км - переменная облачность 751 763 -0.7 22% +7.6° 1.5 км - - - -
12:00 +31.3° Ю-З 4 7 20 км пыль, поднятая на станции или вблизи станции переменная облачность 752 764 -0.2 24% +8.5° 1.5 км - - - -
09:00 +28.3° З 3 5 20 км - переменная облачность 752 764 -0.2 33% +10.5° более 2.5 км - - - -
06:00 +18.7° штиль 0 0 20 км - облачно с прояснениями 752 764 +0.2 68% +12.6° - - Сухая (без трещин) - -
03:00 +14.4° штиль 0 0 20 км - облачно с прояснениями 752 764 +0.3 78% +10.6° 1 км - - - -